Airport View

Enter AWOS ICAO identifier for current METAR.

ex. KFNL

KADU 192355Z AUTO 08003KT 10SM OVC050 00/M02 A3021 RMK AO2

20 Oct 2020 00:01

Frequency: 118.075

Phone: 712-563-2101

Other Area AWOS: KAIO - KHNR - KCIN - KDNS

TAF KOMA 192343Z 2000/2024 11006KT P6SM BKN120 FM201200 13010KT P6SM BKN025 FM201500 14010KT P6SM OVC015 FM201900 15010KT P6SM OVC025 FM202300 17008KT P6SM BKN040